Latest Weather Observations for Lake Macquarie - Cooranbong

IDN60801

Issued at 8:03 am EST Monday 27 April 2015 (issued every 30 minutes, with the page automatically refreshed every 10 minutes)

About weather observations | Map of weather stations | Latest weather observations for NSW | Other Formats
Station Details ID: 061412 Name: LAKE MACQUARIE AWS Lat: -33.09 Lon: 151.46 Height: 6.0 m
Data from the previous 72 hours. | See also: Recent months at Lake Macquarie - Cooranbong
Date/Time
EST
Temp
°C
App
Temp
°C
Dew
Point
Rel
Hum
%
Delta-T
°C
Wind Press
QNH
hPa
Press
MSL
hPa
Rain
since 9 am
mm
Dir
 
Spd
km/h
Gust
km/h
Spd
kts
Gust
kts
27/08:00am 13.0 13.1 11.4 90 0.8 N 2 6 1 3 1018.9 1018.9 0.0
27/07:30am 10.9 10.7 10.3 96 0.3 NW 2 9 1 5 1018.5 1018.5 0.0
27/07:00am 9.4 9.1 8.8 96 0.3 CALM 0 0 0 0 1018.3 1018.3 0.0
27/06:30am 9.3 9.0 8.5 95 0.4 CALM 0 2 0 1 1017.9 1017.9 0.0
27/06:00am 9.1 8.7 8.3 95 0.4 CALM 0 6 0 3 1017.6 1017.6 0.0
27/05:30am 9.8 9.6 9.0 95 0.4 CALM 0 0 0 0 1017.2 1017.2 0.0
27/05:00am 9.9 9.7 9.0 94 0.4 CALM 0 0 0 0 1017.0 1017.0 0.0
27/04:30am 10.3 10.1 9.2 93 0.5 CALM 0 0 0 0 1016.7 1016.7 0.0
27/04:00am 11.0 11.1 10.1 94 0.5 CALM 0 0 0 0 1016.3 1016.3 0.0
27/03:30am 11.1 11.2 10.0 93 0.6 CALM 0 0 0 0 1016.1 1016.1 0.0
27/03:00am 11.7 12.0 10.8 94 0.5 CALM 0 0 0 0 1015.7 1015.7 0.0
27/02:30am 11.7 12.0 10.9 95 0.4 CALM 0 0 0 0 1015.6 1015.6 0.0
27/02:00am 11.6 11.9 10.8 95 0.4 CALM 0 0 0 0 1015.6 1015.6 0.0
27/01:30am 11.0 11.1 10.1 94 0.5 CALM 0 0 0 0 1015.5 1015.5 0.0
27/01:00am 11.0 11.1 10.1 94 0.5 CALM 0 0 0 0 1015.2 1015.2 0.0
27/12:30am 10.9 10.9 9.8 93 0.6 CALM 0 0 0 0 1015.3 1015.3 0.0
27/12:00am 10.9 10.9 9.7 92 0.6 CALM 0 0 0 0 1015.4 1015.4 0.0
 
Date/Time
EST
Temp
°C
App
Temp
°C
Dew
Point
Rel
Hum
%
Delta-T
°C
Wind Press
QNH
hPa
Press
MSL
hPa
Rain
since 9 am
mm
Dir
 
Spd
km/h
Gust
km/h
Spd
kts
Gust
kts
26/11:30pm 11.3 11.3 9.9 91 0.7 CALM 0 0 0 0 1015.4 1015.4 0.0
26/11:00pm 11.7 11.8 10.1 90 0.8 CALM 0 0 0 0 1015.4 1015.4 0.0
26/10:30pm 12.6 12.7 10.3 86 1.2 CALM 0 2 0 1 1015.5 1015.5 0.0
26/10:00pm 12.6 11.7 10.5 87 1.1 NNW 6 7 3 4 1015.5 1015.5 0.0
26/09:30pm 13.6 13.1 10.6 82 1.6 NNW 4 4 2 2 1015.5 1015.5 0.0
26/09:00pm 14.1 13.6 10.9 81 1.7 N 4 6 2 3 1015.5 1015.5 0.0
26/08:30pm 13.4 13.6 10.6 83 1.5 CALM 0 0 0 0 1015.3 1015.3 0.0
26/08:00pm 14.1 14.0 10.7 80 1.8 W 2 6 1 3 1014.9 1014.9 0.0
26/07:30pm 13.9 14.1 11.8 87 1.1 SW 2 4 1 2 1014.5 1014.5 0.0
26/07:00pm 14.1 14.5 11.4 84 1.4 CALM 0 0 0 0 1014.1 1014.1 0.0
26/06:30pm 15.2 15.8 12.0 81 1.7 CALM 0 2 0 1 1013.6 1013.6 0.0
26/06:00pm 15.7 16.2 11.5 76 2.3 CALM 0 2 0 1 1013.1 1013.1 0.0
26/05:30pm 17.0 16.5 10.6 66 3.4 WSW 4 6 2 3 1012.7 1012.7 0.0
26/05:00pm 18.2 17.1 10.8 62 4.0 W 7 15 4 8 1011.9 1011.9 0.0
26/04:30pm 17.9 17.1 11.0 64 3.7 W 6 13 3 7 1011.4 1011.4 0.0
26/04:00pm 17.7 16.4 11.3 66 3.5 WSW 9 20 5 11 1011.3 1011.3 0.0
26/03:30pm 17.8 16.3 10.4 62 3.9 WSW 9 15 5 8 1010.9 1010.9 0.0
26/03:00pm 18.0 17.0 11.1 64 3.7 WSW 7 15 4 8 1010.3 1010.3 0.0
26/02:30pm 17.9 15.6 10.5 62 4.0 WSW 13 22 7 12 1009.9 1009.9 0.0
26/02:00pm 18.7 15.7 9.2 54 5.0 WSW 15 32 8 17 1009.3 1009.3 0.0
26/01:30pm 18.4 16.2 9.5 56 4.7 W 11 19 6 10 1008.7 1008.7 0.0
26/01:00pm 18.2 14.8 9.3 56 4.7 WSW 17 35 9 19 1008.8 1008.8 0.0
26/12:30pm 18.6 16.2 8.8 53 5.1 WSW 11 22 6 12 1008.3 1008.3 0.0
26/12:00pm 18.4 15.8 9.2 55 4.8 WSW 13 24 7 13 1008.3 1008.3 0.0
26/11:30am 18.1 15.5 9.5 57 4.5 W 13 24 7 13 1008.3 1008.3 0.0
26/11:00am 17.5 15.3 9.4 59 4.2 W 11 20 6 11 1008.4 1008.4 0.0
26/10:30am 16.9 14.4 8.3 57 4.4 W 11 26 6 14 1008.5 1008.5 0.0
26/10:00am 16.7 14.2 8.4 58 4.2 W 11 20 6 11 1008.5 1008.5 0.0
26/09:30am 15.7 14.5 9.6 67 3.2 NW 6 15 3 8 1008.5 1008.5 0.0
26/09:00am 14.8 13.1 8.5 66 3.2 WNW 7 15 4 8 1008.7 1008.7 -
26/08:30am 13.9 12.4 8.3 69 2.8 NNW 6 9 3 5 1008.7 1008.7 -
26/08:00am 13.9 12.4 8.5 70 2.7 W 6 9 3 5 1008.6 1008.6 -
26/07:30am 11.7 10.7 8.9 83 1.4 NNW 4 7 2 4 1008.1 1008.1 -
26/07:00am 12.2 10.7 8.3 77 1.9 N 6 13 3 7 1007.4 1007.4 -
26/06:30am 10.8 10.3 9.2 90 0.8 N 2 6 1 3 1007.3 1007.3 -
26/06:00am 10.6 9.8 8.2 85 1.2 N 2 4 1 2 1007.3 1007.3 -
26/05:30am 12.2 10.9 7.5 73 2.3 NW 4 9 2 5 1006.7 1006.7 -
26/05:00am 12.3 10.7 8.2 76 2.0 NNW 6 15 3 8 1006.6 1006.6 -
26/04:30am 11.0 9.9 8.6 85 1.2 NNW 4 7 2 4 1006.7 1006.7 -
26/04:00am 11.8 10.3 9.0 83 1.4 NNW 7 13 4 7 1006.6 1006.6 -
26/03:30am 12.6 11.2 8.9 78 1.9 NW 6 11 3 6 1006.9 1006.9 -
26/03:00am 11.9 11.1 9.8 87 1.1 NNW 4 7 2 4 1006.8 1006.8 5.0
26/02:30am 12.5 11.8 9.9 84 1.3 WNW 4 7 2 4 1007.0 1007.0 -
26/02:00am 12.1 12.4 10.8 92 0.7 CALM 0 6 0 3 1007.7 1007.7 -
26/01:30am 12.7 11.8 10.8 88 1.0 NW 6 9 3 5 1007.5 1007.5 -
26/01:00am 13.6 12.3 11.3 86 1.2 WNW 9 26 5 14 1007.9 1007.9 -
26/12:30am 12.9 12.8 12.0 94 0.5 NW 4 7 2 4 1007.4 1007.4 -
26/12:00am 12.8 13.3 11.7 93 0.6 CALM 0 4 0 2 1007.6 1007.6 -
 
Date/Time
EST
Temp
°C
App
Temp
°C
Dew
Point
Rel
Hum
%
Delta-T
°C
Wind Press
QNH
hPa
Press
MSL
hPa
Rain
since 9 am
mm
Dir
 
Spd
km/h
Gust
km/h
Spd
kts
Gust
kts
25/11:30pm 13.3 13.8 11.7 90 0.9 CALM 0 0 0 0 1007.6 1007.6 -
25/11:00pm 14.0 14.7 12.2 89 1.0 CALM 0 4 0 2 1007.6 1007.6 -
25/10:30pm 14.4 14.4 12.4 88 1.1 WSW 4 11 2 6 1007.8 1007.8 -
25/10:00pm 14.5 14.7 12.9 90 0.9 SSW 4 7 2 4 1008.1 1008.1 -
25/09:30pm 15.0 15.3 13.4 90 0.9 SSW 4 6 2 3 1008.0 1008.0 -
25/09:00pm 14.7 14.4 13.4 92 0.7 SSW 7 15 4 8 1007.6 1007.6 8.0
25/08:30pm 14.1 14.2 12.8 92 0.7 WNW 4 9 2 5 1006.4 1006.4 -
25/08:00pm 14.8 13.9 12.7 87 1.2 NNW 9 20 5 11 1006.0 1006.0 -
25/07:30pm 14.5 14.7 13.2 92 0.7 WSW 4 7 2 4 1005.8 1005.8 -
25/07:00pm 14.7 15.2 12.7 88 1.1 SSW 2 6 1 3 1005.8 1005.8 -
25/06:30pm 16.0 16.4 12.6 80 1.9 WNW 2 7 1 4 1006.5 1006.5 -
25/06:00pm 17.4 17.1 13.3 77 2.3 SSE 7 13 4 7 1005.7 1005.7 -
25/05:30pm 18.5 19.9 15.4 82 1.8 SW 2 6 1 3 1005.0 1005.0 -
25/05:00pm 19.7 21.0 14.1 70 3.2 CALM 0 0 0 0 1004.6 1004.6 -
25/04:30pm 21.2 21.8 13.1 60 4.6 ENE 2 4 1 2 1004.7 1004.7 -
25/04:00pm 23.9 23.8 12.2 48 6.7 NNE 4 7 2 4 1004.7 1004.7 -
25/03:30pm 24.7 23.5 10.2 40 8.0 N 7 11 4 6 1004.7 1004.7 -
25/03:00pm 24.7 23.4 9.8 39 8.2 N 7 13 4 7 1004.9 1004.9 -
25/02:30pm 24.9 23.7 10.4 40 8.0 N 7 13 4 7 1005.1 1005.1 -
25/02:00pm 24.9 23.6 10.0 39 8.2 N 7 13 4 7 1005.5 1005.5 -
25/01:30pm 24.4 24.3 12.0 46 7.1 WSW 4 9 2 5 1005.9 1005.9 -
25/01:00pm 23.4 22.1 10.1 43 7.3 N 7 11 4 6 1006.4 1006.4 -
25/12:30pm 24.6 23.9 10.1 40 8.0 NE 4 9 2 5 1006.7 1006.7 -
25/12:00pm 24.4 23.8 11.7 45 7.2 NW 6 13 3 7 1007.1 1007.1 0.0
25/11:30am 23.8 22.5 10.1 42 7.5 N 7 13 4 7 1007.7 1007.7 0.0
25/11:00am 23.8 23.5 11.5 46 6.9 N 4 9 2 5 1008.2 1008.2 0.0
25/10:30am 23.4 23.3 12.1 49 6.4 NW 4 7 2 4 1008.5 1008.5 0.0
25/10:00am 22.4 22.0 11.2 49 6.2 WNW 4 7 2 4 1008.8 1008.8 0.0
25/09:30am 21.7 21.2 12.8 57 5.1 NNW 7 11 4 6 1009.2 1009.2 0.0
25/09:00am 20.8 21.6 14.9 69 3.5 N 4 7 2 4 1009.1 1009.1 -
25/08:30am 17.4 19.3 15.7 90 1.0 CALM 0 0 0 0 1009.0 1009.0 -
25/08:00am 15.0 16.4 14.5 97 0.3 CALM 0 0 0 0 1009.2 1009.2 -
25/07:30am 14.0 15.2 13.7 98 0.2 CALM 0 0 0 0 1008.9 1008.9 -
25/07:00am 12.3 12.9 11.8 97 0.3 CALM 0 0 0 0 1008.5 1008.5 -
25/06:30am 12.2 12.7 11.7 97 0.3 CALM 0 0 0 0 1008.2 1008.2 -
25/06:00am 12.4 13.0 11.9 97 0.3 CALM 0 0 0 0 1007.9 1007.9 -
25/05:30am 12.9 13.7 12.4 97 0.3 CALM 0 2 0 1 1007.6 1007.6 -
25/05:00am 13.0 13.8 12.5 97 0.3 CALM 0 0 0 0 1007.5 1007.5 -
25/04:30am 13.3 14.2 12.8 97 0.3 CALM 0 0 0 0 1007.3 1007.3 -
25/04:00am 13.4 14.3 12.9 97 0.3 CALM 0 0 0 0 1007.3 1007.3 -
25/03:30am 13.0 13.8 12.4 96 0.3 CALM 0 0 0 0 1007.1 1007.1 -
25/03:00am 13.2 14.0 12.6 96 0.3 CALM 0 0 0 0 1007.4 1007.4 0.0
25/02:30am 13.4 14.3 12.8 96 0.3 CALM 0 0 0 0 1007.5 1007.5 -
25/02:00am 13.5 14.4 12.9 96 0.3 CALM 0 6 0 3 1007.7 1007.7 -
25/01:30am 13.6 13.8 13.0 96 0.3 N 4 6 2 3 1007.7 1007.7 -
25/01:00am 13.9 14.9 13.3 96 0.3 CALM 0 0 0 0 1007.8 1007.8 -
25/12:30am 13.9 14.5 13.1 95 0.4 NNW 2 6 1 3 1007.8 1007.8 -
25/12:00am 14.2 15.3 13.4 95 0.4 CALM 0 0 0 0 1007.7 1007.7 -
 
Date/Time
EST
Temp
°C
App
Temp
°C
Dew
Point
Rel
Hum
%
Delta-T
°C
Wind Press
QNH
hPa
Press
MSL
hPa
Rain
since 9 am
mm
Dir
 
Spd
km/h
Gust
km/h
Spd
kts
Gust
kts
24/11:30pm 14.6 15.8 13.8 95 0.4 CALM 0 0 0 0 1007.7 1007.7 -
24/11:00pm 14.7 15.9 13.7 94 0.6 CALM 0 0 0 0 1007.6 1007.6 -
24/10:30pm 15.2 16.5 14.2 94 0.6 CALM 0 0 0 0 1007.6 1007.6 -
24/10:00pm 15.4 16.8 14.4 94 0.6 CALM 0 0 0 0 1007.5 1007.5 -
24/09:30pm 15.8 17.3 14.7 93 0.6 CALM 0 0 0 0 1007.5 1007.5 -
24/09:00pm 16.4 18.1 15.1 92 0.8 CALM 0 0 0 0 1007.3 1007.3 -
24/08:30pm 16.7 18.5 15.6 93 0.6 CALM 0 0 0 0 1007.1 1007.1 -
24/08:00pm 17.3 19.2 15.8 91 0.9 CALM 0 0 0 0 1006.8 1006.8 -
24/07:30pm 17.8 19.0 15.8 88 1.2 NNW 4 4 2 2 1006.8 1006.8 -
24/07:00pm 18.5 20.2 16.1 86 1.4 NW 2 4 1 2 1006.5 1006.5 0.0
24/06:30pm 19.1 20.7 16.9 87 1.3 NNW 4 6 2 3 1006.3 1006.3 0.0
24/06:00pm 19.7 21.5 17.3 86 1.5 NNW 4 6 2 3 1006.0 1006.0 0.0
24/05:30pm 20.7 23.0 17.7 83 1.8 NW 2 4 1 2 1005.7 1005.7 0.0
24/05:00pm 22.1 24.9 17.9 77 2.6 CALM 0 0 0 0 1005.5 1005.5 0.0
24/04:30pm 24.0 25.4 16.5 63 4.6 N 4 7 2 4 1005.3 1005.3 0.0
24/04:00pm 24.9 26.8 16.6 60 5.1 N 2 4 1 2 1005.1 1005.1 0.0
24/03:30pm 25.3 25.6 14.4 50 6.5 N 6 9 3 5 1005.0 1005.0 0.0
24/03:00pm 25.9 26.5 15.3 52 6.4 NW 6 11 3 6 1005.1 1005.1 0.0
24/02:30pm 25.6 26.0 15.3 53 6.2 WNW 7 13 4 7 1005.3 1005.3 0.0
24/02:00pm 24.8 24.6 14.6 53 6.1 NW 9 15 5 8 1005.4 1005.4 0.0
24/01:30pm 25.1 25.2 15.4 55 5.9 NNW 9 17 5 9 1005.5 1005.5 0.0
24/01:00pm 24.9 24.2 14.4 52 6.2 NW 11 19 6 10 1005.9 1005.9 0.0
24/12:30pm 24.8 25.7 15.1 54 5.8 NNW 4 11 2 6 1006.2 1006.2 0.0
24/12:00pm 24.6 25.0 16.3 60 5.1 N 9 17 5 9 1006.7 1006.7 0.0
24/11:30am 24.1 23.8 14.5 55 5.7 NW 9 17 5 9 1007.1 1007.1 0.0
24/11:00am 23.3 22.9 15.1 60 4.9 NW 11 20 6 11 1007.5 1007.5 0.0
24/10:30am 19.4 22.6 18.9 97 0.3 CALM 0 0 0 0 1007.9 1007.9 0.0
24/10:00am 17.6 20.2 17.4 99 0.1 CALM 0 0 0 0 1008.3 1008.3 0.0
24/09:30am 16.2 18.2 16.0 99 0.1 CALM 0 0 0 0 1008.5 1008.5 0.0
24/09:00am 15.2 16.8 15.0 99 0.1 CALM 0 0 0 0 1008.4 1008.4 1.8
24/08:30am 14.5 15.9 14.3 99 0.1 CALM 0 0 0 0 1008.5 1008.5 1.8

Other Formats:

Comma delimited format used in spreadsheet applications
http://www.bom.gov.au/fwo/IDN60801/IDN60801.95767.axf

JavaScript Object Notation format (JSON) in row-major order
http://www.bom.gov.au/fwo/IDN60801/IDN60801.95767.json